createdAt,value
2019-02-08T00:00:21.864Z,3.00
2019-02-08T00:01:30.050Z,3.00
2019-02-08T00:02:34.169Z,3.00
2019-02-08T00:03:38.273Z,3.00
2019-02-08T00:04:42.498Z,3.00
2019-02-08T00:05:47.061Z,3.00
2019-02-08T00:06:52.006Z,3.00
2019-02-08T00:07:56.523Z,3.00
2019-02-08T00:09:00.645Z,3.00
2019-02-08T00:10:05.977Z,3.00
2019-02-08T00:11:10.137Z,3.00
2019-02-08T00:12:14.253Z,3.00
2019-02-08T00:13:18.701Z,3.00
2019-02-08T00:14:22.827Z,3.00
2019-02-08T00:15:27.290Z,3.00
2019-02-08T00:16:31.437Z,3.00
2019-02-08T00:17:35.865Z,3.10
2019-02-08T00:18:40.004Z,3.10
2019-02-08T00:19:44.135Z,3.10
2019-02-08T00:20:48.651Z,3.10
2019-02-08T00:21:52.871Z,3.10
2019-02-08T00:22:57.094Z,3.10
2019-02-08T00:24:01.377Z,3.10
2019-02-08T00:25:06.894Z,3.20
2019-02-08T00:26:11.494Z,3.10
2019-02-08T00:27:15.714Z,3.10
2019-02-08T00:28:19.873Z,3.00
2019-02-08T00:29:23.987Z,3.10
2019-02-08T00:30:28.495Z,3.10
2019-02-08T00:31:32.702Z,3.10
2019-02-08T00:32:36.817Z,3.00
2019-02-08T00:33:40.972Z,3.00
2019-02-08T00:34:45.081Z,3.00
2019-02-08T00:35:49.361Z,3.10
2019-02-08T00:36:53.877Z,3.10
2019-02-08T00:37:57.981Z,3.00
2019-02-08T00:39:02.125Z,3.00
2019-02-08T00:40:07.999Z,3.10
2019-02-08T00:41:12.121Z,3.00
2019-02-08T00:42:16.252Z,3.10
2019-02-08T00:43:20.582Z,3.00
2019-02-08T00:44:24.747Z,3.00
2019-02-08T00:45:29.049Z,3.00
2019-02-08T00:46:33.169Z,3.00
2019-02-08T00:47:37.304Z,3.10
2019-02-08T00:48:41.517Z,3.10
2019-02-08T00:49:45.679Z,3.10
2019-02-08T00:50:50.217Z,3.00
2019-02-08T00:51:54.697Z,3.00
2019-02-08T00:52:58.835Z,3.00
2019-02-08T00:54:03.027Z,3.00
2019-02-08T00:55:07.513Z,3.00
2019-02-08T00:56:11.669Z,3.00
2019-02-08T00:57:15.785Z,3.00
2019-02-08T00:58:19.905Z,3.10
2019-02-08T00:59:24.069Z,3.00
2019-02-08T01:00:28.409Z,3.10
2019-02-08T01:01:32.569Z,3.00
2019-02-08T01:02:36.693Z,3.00
2019-02-08T01:03:40.889Z,3.00
2019-02-08T01:04:45.001Z,3.00
2019-02-08T01:05:49.497Z,3.00
2019-02-08T01:06:53.640Z,3.00
2019-02-08T01:07:58.174Z,3.00
2019-02-08T01:09:02.480Z,3.00
2019-02-08T01:10:09.126Z,3.00
2019-02-08T01:11:13.254Z,3.00
2019-02-08T01:12:17.734Z,3.00
2019-02-08T01:13:21.849Z,3.00
2019-02-08T01:14:25.965Z,3.00
2019-02-08T01:15:30.823Z,3.00
2019-02-08T01:16:35.025Z,3.00
2019-02-08T01:17:39.181Z,3.00
2019-02-08T01:18:43.299Z,3.00
2019-02-08T01:19:47.442Z,3.10
2019-02-08T01:20:51.741Z,3.00
2019-02-08T01:21:56.280Z,3.00
2019-02-08T01:23:00.407Z,3.00
2019-02-08T01:24:04.525Z,3.10
2019-02-08T01:25:11.725Z,3.10
2019-02-08T01:26:15.825Z,3.10
2019-02-08T01:27:19.953Z,3.10
2019-02-08T01:28:24.073Z,3.10
2019-02-08T01:29:28.205Z,3.10
2019-02-08T01:30:32.383Z,3.10
2019-02-08T01:31:36.514Z,3.10
2019-02-08T01:32:40.701Z,3.20
2019-02-08T01:33:44.850Z,3.20
2019-02-08T01:34:49.005Z,3.30
2019-02-08T01:35:53.139Z,3.30
2019-02-08T01:36:57.269Z,3.40
2019-02-08T01:38:02.006Z,3.30
2019-02-08T01:39:08.208Z,3.30
2019-02-08T01:40:15.481Z,3.20
2019-02-08T01:41:19.599Z,3.20
2019-02-08T01:42:23.729Z,3.20
2019-02-08T01:43:27.929Z,3.20
2019-02-08T01:44:32.069Z,3.20
2019-02-08T01:45:36.391Z,3.20
2019-02-08T01:46:40.617Z,3.30
2019-02-08T01:47:44.735Z,3.30
2019-02-08T01:48:48.885Z,3.20
2019-02-08T01:49:53.005Z,3.20
2019-02-08T01:50:57.134Z,3.20
2019-02-08T01:52:01.351Z,3.20
2019-02-08T01:53:05.793Z,3.20
2019-02-08T01:54:09.949Z,3.30
2019-02-08T01:55:14.713Z,3.30
2019-02-08T01:56:18.849Z,3.30
2019-02-08T01:57:23.435Z,3.30
2019-02-08T01:58:27.545Z,3.30
2019-02-08T01:59:31.659Z,3.20
2019-02-08T02:00:38.539Z,3.30
2019-02-08T02:01:42.666Z,3.20
2019-02-08T02:02:46.805Z,3.20
2019-02-08T02:03:50.978Z,3.20
2019-02-08T02:04:55.113Z,3.20
2019-02-08T02:05:59.237Z,3.20
2019-02-08T02:07:03.417Z,3.20
2019-02-08T02:08:07.874Z,3.20
2019-02-08T02:09:12.198Z,3.20
2019-02-08T02:10:31.592Z,3.20
2019-02-08T02:11:35.747Z,3.20
2019-02-08T02:12:39.857Z,3.20
2019-02-08T02:13:43.981Z,3.20
2019-02-08T02:14:48.093Z,3.10
2019-02-08T02:15:52.329Z,3.10
2019-02-08T02:16:56.745Z,3.10
2019-02-08T02:18:00.873Z,3.10
2019-02-08T02:19:05.285Z,3.10
2019-02-08T02:20:10.618Z,3.10
2019-02-08T02:21:14.790Z,3.20
2019-02-08T02:22:18.901Z,3.20
2019-02-08T02:23:23.385Z,3.20
2019-02-08T02:24:27.501Z,3.20
2019-02-08T02:25:31.618Z,3.20
2019-02-08T02:26:35.773Z,3.20
2019-02-08T02:27:39.905Z,3.30
2019-02-08T02:28:44.029Z,3.30
2019-02-08T02:29:48.149Z,3.30
2019-02-08T02:30:52.281Z,3.30
2019-02-08T02:31:56.459Z,3.30
2019-02-08T02:33:00.582Z,3.30
2019-02-08T02:34:04.901Z,3.30
2019-02-08T02:35:10.312Z,3.30
2019-02-08T02:36:14.411Z,3.30
2019-02-08T02:37:18.581Z,3.30
2019-02-08T02:38:22.757Z,3.30
2019-02-08T02:39:26.889Z,3.30
2019-02-08T02:40:31.063Z,3.30
2019-02-08T02:41:35.205Z,3.20
2019-02-08T02:42:39.524Z,3.20
2019-02-08T02:43:43.685Z,3.20
2019-02-08T02:44:47.979Z,3.30
2019-02-08T02:45:52.147Z,3.30
2019-02-08T02:46:56.385Z,3.30
2019-02-08T02:48:00.569Z,3.30
2019-02-08T02:49:04.781Z,3.30
2019-02-08T02:50:09.718Z,3.30
2019-02-08T02:51:14.064Z,3.30
2019-02-08T02:52:18.235Z,3.30
2019-02-08T02:53:22.857Z,3.30
2019-02-08T02:54:27.035Z,3.30
2019-02-08T02:55:31.668Z,3.30
2019-02-08T02:56:36.049Z,3.30
2019-02-08T02:57:40.276Z,3.20
2019-02-08T02:58:44.492Z,3.30
2019-02-08T02:59:48.755Z,3.30
2019-02-08T03:00:53.267Z,3.30
2019-02-08T03:01:57.444Z,3.30
2019-02-08T03:03:01.746Z,3.30
2019-02-08T03:04:06.063Z,3.30
2019-02-08T03:05:10.732Z,3.20
2019-02-08T03:06:15.040Z,3.30
2019-02-08T03:07:19.242Z,3.30
2019-02-08T03:08:23.580Z,3.30
2019-02-08T03:09:27.896Z,3.30
2019-02-08T03:10:32.548Z,3.20
2019-02-08T03:11:36.700Z,3.20
2019-02-08T03:12:40.849Z,3.10
2019-02-08T03:13:45.039Z,3.10
2019-02-08T03:14:49.329Z,3.10
2019-02-08T03:15:53.611Z,3.10
2019-02-08T03:16:57.953Z,3.20
2019-02-08T03:18:02.249Z,3.20
2019-02-08T03:19:06.627Z,3.10
2019-02-08T03:20:14.390Z,3.10
2019-02-08T03:21:18.676Z,3.20
2019-02-08T03:22:22.829Z,3.10
2019-02-08T03:23:27.169Z,3.10
2019-02-08T03:24:31.479Z,3.10
2019-02-08T03:25:36.055Z,3.10
2019-02-08T03:26:40.378Z,3.10
2019-02-08T03:27:44.695Z,3.10
2019-02-08T03:28:48.888Z,3.10
2019-02-08T03:29:53.916Z,3.10
2019-02-08T03:30:59.064Z,3.10
2019-02-08T03:32:03.253Z,3.10
2019-02-08T03:33:07.488Z,3.10
2019-02-08T03:34:11.793Z,3.10
2019-02-08T03:35:19.299Z,3.10
2019-02-08T03:36:23.546Z,3.20
2019-02-08T03:37:27.798Z,3.20
2019-02-08T03:38:32.098Z,3.20
2019-02-08T03:39:36.743Z,3.20
2019-02-08T03:40:41.046Z,3.20
2019-02-08T03:41:45.335Z,3.10
2019-02-08T03:42:49.678Z,3.20
2019-02-08T03:43:54.271Z,3.10
2019-02-08T03:44:58.603Z,3.20
2019-02-08T03:46:02.853Z,3.20
2019-02-08T03:47:07.109Z,3.20
2019-02-08T03:48:12.243Z,3.20
2019-02-08T03:49:16.419Z,3.20
2019-02-08T03:50:21.705Z,3.20
2019-02-08T03:51:25.873Z,3.20
2019-02-08T03:52:30.148Z,3.20
2019-02-08T03:53:34.428Z,3.20
2019-02-08T03:54:38.677Z,3.20
2019-02-08T03:55:42.928Z,3.20
2019-02-08T03:56:47.144Z,3.20
2019-02-08T03:57:51.489Z,3.10
2019-02-08T03:58:55.909Z,3.20
2019-02-08T04:00:00.315Z,3.20
2019-02-08T04:01:06.459Z,3.20
2019-02-08T04:02:10.756Z,3.20
2019-02-08T04:03:14.980Z,3.30
2019-02-08T04:04:19.282Z,3.30
2019-02-08T04:05:23.976Z,3.20
2019-02-08T04:06:28.237Z,3.20
2019-02-08T04:07:32.438Z,3.30
2019-02-08T04:08:36.750Z,3.30
2019-02-08T04:09:41.053Z,3.30
2019-02-08T04:10:45.460Z,3.30
2019-02-08T04:11:49.646Z,3.20
2019-02-08T04:12:53.960Z,3.20
2019-02-08T04:13:58.159Z,3.20
2019-02-08T04:15:02.421Z,3.20
2019-02-08T04:16:06.618Z,3.20
2019-02-08T04:17:10.916Z,3.20
2019-02-08T04:18:15.099Z,3.20
2019-02-08T04:19:19.412Z,3.20
2019-02-08T04:20:25.958Z,3.20
2019-02-08T04:21:30.088Z,3.20
2019-02-08T04:22:34.380Z,3.20
2019-02-08T04:23:38.644Z,3.30
2019-02-08T04:24:42.882Z,3.20
2019-02-08T04:25:47.192Z,3.20
2019-02-08T04:26:51.347Z,3.20
2019-02-08T04:27:55.761Z,3.30
2019-02-08T04:29:00.050Z,3.30
2019-02-08T04:30:06.146Z,3.30
2019-02-08T04:31:10.454Z,3.30
2019-02-08T04:32:14.789Z,3.30
2019-02-08T04:33:19.424Z,3.30
2019-02-08T04:34:23.669Z,3.40
2019-02-08T04:35:27.887Z,3.40
2019-02-08T04:36:32.190Z,3.40
2019-02-08T04:37:36.477Z,3.40
2019-02-08T04:38:40.777Z,3.40
2019-02-08T04:39:44.903Z,3.40
2019-02-08T04:40:49.207Z,3.40
2019-02-08T04:41:53.552Z,3.50
2019-02-08T04:42:58.151Z,3.50
2019-02-08T04:44:02.435Z,3.50
2019-02-08T04:45:07.534Z,3.50
2019-02-08T04:46:11.782Z,3.50
2019-02-08T04:47:16.011Z,3.50
2019-02-08T04:48:20.286Z,3.50
2019-02-08T04:49:24.595Z,3.60
2019-02-08T04:50:28.899Z,3.60
2019-02-08T04:51:33.094Z,3.60
2019-02-08T04:52:37.289Z,3.60
2019-02-08T04:53:41.623Z,3.60
2019-02-08T04:54:45.882Z,3.60
2019-02-08T04:55:50.185Z,3.60
2019-02-08T04:56:54.708Z,3.60
2019-02-08T04:57:59.060Z,3.60
2019-02-08T04:59:03.258Z,3.50
2019-02-08T05:00:11.399Z,3.50
2019-02-08T05:01:15.624Z,3.50
2019-02-08T05:02:19.893Z,3.50
2019-02-08T05:03:24.329Z,3.50
2019-02-08T05:04:28.593Z,3.50
2019-02-08T05:05:32.898Z,3.50
2019-02-08T05:06:37.080Z,3.60
2019-02-08T05:07:41.240Z,3.60
2019-02-08T05:08:45.563Z,3.60
2019-02-08T05:09:49.733Z,3.60
2019-02-08T05:10:53.868Z,3.60
2019-02-08T05:11:58.169Z,3.60
2019-02-08T05:13:02.768Z,3.50
2019-02-08T05:14:07.064Z,3.50
2019-02-08T05:15:12.135Z,3.50
2019-02-08T05:16:16.479Z,3.50
2019-02-08T05:17:20.774Z,3.50
2019-02-08T05:18:25.057Z,3.50
2019-02-08T05:19:29.280Z,3.50
2019-02-08T05:20:33.550Z,3.50
2019-02-08T05:21:37.849Z,3.50
2019-02-08T05:22:42.258Z,3.50
2019-02-08T05:23:46.657Z,3.50
2019-02-08T05:24:50.957Z,3.50
2019-02-08T05:25:55.148Z,3.50
2019-02-08T05:26:59.441Z,3.40
2019-02-08T05:28:03.854Z,3.40
2019-02-08T05:29:08.017Z,3.40
2019-02-08T05:30:15.961Z,3.40
2019-02-08T05:31:20.115Z,3.40
2019-02-08T05:32:24.321Z,3.40
2019-02-08T05:33:28.575Z,3.40
2019-02-08T05:34:32.907Z,3.40
2019-02-08T05:35:37.083Z,3.50
2019-02-08T05:36:41.396Z,3.50
2019-02-08T05:37:45.704Z,3.40
2019-02-08T05:38:49.959Z,3.40
2019-02-08T05:39:54.243Z,3.40
2019-02-08T05:40:58.583Z,3.40
2019-02-08T05:42:02.895Z,3.40
2019-02-08T05:43:07.571Z,3.40
2019-02-08T05:44:11.828Z,3.40
2019-02-08T05:45:17.209Z,3.40
2019-02-08T05:46:21.535Z,3.40
2019-02-08T05:47:25.743Z,3.40
2019-02-08T05:48:29.925Z,3.50
2019-02-08T05:49:34.105Z,3.50
2019-02-08T05:50:38.234Z,3.50
2019-02-08T05:51:42.423Z,3.50
2019-02-08T05:52:46.891Z,3.60
2019-02-08T05:53:51.062Z,3.60
2019-02-08T05:54:55.679Z,3.60
2019-02-08T05:55:59.885Z,3.60
2019-02-08T05:57:04.049Z,3.50
2019-02-08T05:58:08.287Z,3.60
2019-02-08T05:59:12.611Z,3.60
2019-02-08T06:00:20.440Z,3.60
2019-02-08T06:01:24.651Z,3.50
2019-02-08T06:02:28.942Z,3.50
2019-02-08T06:03:33.231Z,3.50
2019-02-08T06:04:37.365Z,3.50
2019-02-08T06:05:42.581Z,3.40
2019-02-08T06:06:46.721Z,3.50
2019-02-08T06:07:50.911Z,3.50
2019-02-08T06:08:55.082Z,3.50
2019-02-08T06:09:59.248Z,3.50
2019-02-08T06:11:03.543Z,3.60
2019-02-08T06:12:07.825Z,3.50
2019-02-08T06:13:12.198Z,3.50
2019-02-08T06:14:16.551Z,3.50
2019-02-08T06:15:21.426Z,3.50
2019-02-08T06:16:25.598Z,3.40
2019-02-08T06:17:29.811Z,3.40
2019-02-08T06:18:34.203Z,3.40
2019-02-08T06:19:38.549Z,3.40
2019-02-08T06:20:43.482Z,3.30
2019-02-08T06:21:47.802Z,3.30
2019-02-08T06:22:52.214Z,3.30
2019-02-08T06:23:56.480Z,3.30
2019-02-08T06:25:03.802Z,3.30
2019-02-08T06:26:06.820Z,3.30
2019-02-08T06:27:11.007Z,3.30
2019-02-08T06:28:15.287Z,3.30
2019-02-08T06:29:19.586Z,3.30
2019-02-08T06:30:24.107Z,3.30
2019-02-08T06:31:28.308Z,3.30
2019-02-08T06:32:32.562Z,3.30
2019-02-08T06:33:36.717Z,3.30
2019-02-08T06:34:41.362Z,3.30
2019-02-08T06:35:45.770Z,3.30
2019-02-08T06:36:49.963Z,3.40
2019-02-08T06:37:54.326Z,3.40
2019-02-08T06:38:58.663Z,3.40
2019-02-08T06:40:02.952Z,3.40
2019-02-08T06:41:07.280Z,3.40
2019-02-08T06:42:11.601Z,3.30
2019-02-08T06:43:15.768Z,3.30
2019-02-08T06:44:19.991Z,3.40
2019-02-08T06:45:24.829Z,3.30
2019-02-08T06:46:29.170Z,3.30
2019-02-08T06:47:33.371Z,3.30
2019-02-08T06:48:37.685Z,3.40
2019-02-08T06:49:41.950Z,3.30
2019-02-08T06:50:46.132Z,3.40
2019-02-08T06:51:50.438Z,3.40
2019-02-08T06:52:54.851Z,3.50
2019-02-08T06:53:59.120Z,3.40
2019-02-08T06:55:10.484Z,3.40
2019-02-08T06:56:28.507Z,3.40
2019-02-08T06:57:38.623Z,3.40
2019-02-08T06:58:49.630Z,3.40
2019-02-08T07:00:01.524Z,3.40
2019-02-08T07:01:25.021Z,3.40
2019-02-08T07:03:06.431Z,3.40
2019-02-08T07:04:28.406Z,3.40
2019-02-08T07:06:03.727Z,3.40
2019-02-08T07:07:27.868Z,3.40
2019-02-08T07:08:51.100Z,3.40
2019-02-08T07:10:05.183Z,3.40
2019-02-08T07:11:37.500Z,3.40
2019-02-08T07:13:02.529Z,3.40
2019-02-08T07:14:35.314Z,3.40
2019-02-08T07:15:58.536Z,3.30
2019-02-08T07:17:24.349Z,3.40
2019-02-08T07:18:51.541Z,3.40
2019-02-08T07:20:04.208Z,3.40
2019-02-08T07:21:19.099Z,3.40
2019-02-08T07:22:40.962Z,3.40
2019-02-08T07:24:07.208Z,3.50
2019-02-08T07:25:33.175Z,3.50
2019-02-08T07:27:05.185Z,3.60
2019-02-08T07:28:28.406Z,3.60
2019-02-08T07:29:57.571Z,3.60
2019-02-08T07:31:31.985Z,3.60
2019-02-08T07:32:41.983Z,3.50
2019-02-08T07:33:56.143Z,3.50
2019-02-08T07:35:22.367Z,3.30
2019-02-08T07:36:48.779Z,3.30
2019-02-08T07:38:01.999Z,3.30
2019-02-08T07:39:30.722Z,3.40
2019-02-08T07:40:57.364Z,3.40
2019-02-08T07:42:21.688Z,3.40
2019-02-08T07:43:41.842Z,3.40
2019-02-08T07:44:57.861Z,3.50
2019-02-08T07:46:13.319Z,3.60
2019-02-08T07:47:26.318Z,3.60
2019-02-08T07:48:59.047Z,3.70
2019-02-08T07:50:19.842Z,3.60
2019-02-08T07:51:33.706Z,3.60
2019-02-08T07:53:04.041Z,3.60
2019-02-08T07:54:30.182Z,3.60
2019-02-08T07:55:41.146Z,3.70
2019-02-08T07:57:08.311Z,3.70
2019-02-08T07:58:32.082Z,3.70
2019-02-08T07:59:50.635Z,3.70
2019-02-08T08:01:15.067Z,3.70
2019-02-08T08:02:39.056Z,3.70
2019-02-08T08:04:20.474Z,3.80
2019-02-08T08:05:42.855Z,3.80
2019-02-08T08:07:16.222Z,3.80
2019-02-08T08:08:28.074Z,3.80
2019-02-08T08:09:41.302Z,3.80
2019-02-08T08:10:50.558Z,3.80
2019-02-08T08:12:12.806Z,3.80
2019-02-08T08:13:37.651Z,3.80
2019-02-08T08:15:09.983Z,3.70
2019-02-08T08:16:32.156Z,3.80
2019-02-08T08:17:56.035Z,3.80
2019-02-08T08:19:23.967Z,3.80
2019-02-08T08:20:39.855Z,3.80
2019-02-08T08:22:01.828Z,3.80
2019-02-08T08:23:31.291Z,3.80
2019-02-08T08:24:52.982Z,3.80
2019-02-08T08:26:15.564Z,3.80
2019-02-08T08:27:26.839Z,3.80
2019-02-08T08:29:05.143Z,3.80
2019-02-08T08:30:30.705Z,3.80
2019-02-08T08:31:47.403Z,3.80
2019-02-08T08:33:07.537Z,3.80
2019-02-08T08:34:34.418Z,3.80
2019-02-08T08:36:27.432Z,3.80
2019-02-08T08:38:21.659Z,3.80
2019-02-08T08:39:59.391Z,3.80
2019-02-08T08:42:01.825Z,3.80
2019-02-08T08:43:28.405Z,3.80
2019-02-08T08:45:03.769Z,3.90
2019-02-08T08:46:34.726Z,3.90
2019-02-08T08:48:30.642Z,3.90
2019-02-08T08:50:24.635Z,3.90
2019-02-08T08:52:25.139Z,3.90
2019-02-08T08:54:09.312Z,3.90
2019-02-08T08:55:48.421Z,4.10
2019-02-08T08:57:25.735Z,4.10
2019-02-08T08:59:00.607Z,4.20
2019-02-08T09:00:40.171Z,4.20
2019-02-08T09:02:53.195Z,4.20
2019-02-08T09:04:46.607Z,4.20
2019-02-08T09:06:30.549Z,4.20
2019-02-08T09:08:17.454Z,4.40
2019-02-08T09:09:57.801Z,4.40
2019-02-08T09:12:04.382Z,4.40
2019-02-08T09:13:39.689Z,4.40
2019-02-08T09:15:06.921Z,4.40
2019-02-08T09:16:42.124Z,4.40
2019-02-08T09:18:18.332Z,4.30
2019-02-08T09:20:07.988Z,4.30
2019-02-08T09:21:51.163Z,4.30
2019-02-08T09:23:22.663Z,4.30
2019-02-08T09:25:05.487Z,4.30
2019-02-08T09:26:46.343Z,4.30
2019-02-08T09:28:43.465Z,4.30
2019-02-08T09:30:24.865Z,4.30
2019-02-08T09:31:47.505Z,4.20
2019-02-08T09:33:34.479Z,4.30
2019-02-08T09:35:09.135Z,4.30
2019-02-08T09:36:36.648Z,4.30
2019-02-08T09:38:30.933Z,4.30
2019-02-08T09:40:16.537Z,4.40
2019-02-08T09:41:59.405Z,4.40
2019-02-08T09:43:48.619Z,4.50
2019-02-08T09:45:30.605Z,4.50
2019-02-08T09:47:11.358Z,4.50
2019-02-08T09:48:30.353Z,4.50
2019-02-08T09:50:31.447Z,4.50
2019-02-08T09:52:32.147Z,4.50
2019-02-08T09:54:14.633Z,4.60
2019-02-08T09:55:42.902Z,4.60
2019-02-08T09:57:15.585Z,4.60
2019-02-08T09:58:55.692Z,4.60
2019-02-08T10:00:42.743Z,4.60
2019-02-08T10:02:25.216Z,4.60
2019-02-08T10:04:12.681Z,4.70
2019-02-08T10:05:59.168Z,4.70
2019-02-08T10:07:42.010Z,4.70
2019-02-08T10:09:41.519Z,4.80
2019-02-08T10:11:23.946Z,4.80
2019-02-08T10:13:14.779Z,4.80
2019-02-08T10:15:27.663Z,4.80
2019-02-08T10:17:05.472Z,4.80
2019-02-08T10:18:44.263Z,4.80
2019-02-08T10:20:50.698Z,4.80
2019-02-08T10:22:37.927Z,4.80
2019-02-08T10:24:21.940Z,4.70
2019-02-08T10:26:07.598Z,4.60
2019-02-08T10:28:01.521Z,4.60
2019-02-08T10:29:48.480Z,4.50
2019-02-08T10:31:45.155Z,4.60
2019-02-08T10:33:44.365Z,4.60
2019-02-08T10:35:30.412Z,4.70
2019-02-08T10:37:17.915Z,4.70
2019-02-08T10:39:14.598Z,4.70
2019-02-08T10:40:45.407Z,4.80
2019-02-08T10:42:38.637Z,4.80
2019-02-08T10:44:32.331Z,4.90
2019-02-08T10:46:31.709Z,4.90
2019-02-08T10:48:12.374Z,5.00
2019-02-08T10:49:52.680Z,5.10
2019-02-08T10:51:36.969Z,5.00
2019-02-08T10:53:21.397Z,5.00
2019-02-08T10:55:06.644Z,5.10
2019-02-08T10:56:38.186Z,5.00
2019-02-08T10:58:18.712Z,5.00
2019-02-08T10:59:58.969Z,4.90
2019-02-08T11:01:41.930Z,5.00
2019-02-08T11:03:13.278Z,5.00
2019-02-08T11:04:45.913Z,5.00
2019-02-08T11:06:26.221Z,4.90
2019-02-08T11:08:06.586Z,5.00
2019-02-08T11:09:55.494Z,5.00
2019-02-08T11:11:25.223Z,5.00
2019-02-08T11:13:18.472Z,4.90
2019-02-08T11:15:06.211Z,4.90
2019-02-08T11:16:51.486Z,5.00
2019-02-08T11:18:41.931Z,5.10
2019-02-08T11:19:49.663Z,5.10
2019-02-08T11:20:53.972Z,5.10
2019-02-08T11:21:58.259Z,5.10
2019-02-08T11:23:02.554Z,5.10
2019-02-08T11:24:06.859Z,5.10
2019-02-08T11:25:11.157Z,5.10
2019-02-08T11:26:22.197Z,5.10
2019-02-08T11:27:21.748Z,5.10
2019-02-08T11:28:26.073Z,5.10
2019-02-08T11:29:30.412Z,5.20
2019-02-08T11:30:34.665Z,5.20
2019-02-08T11:31:38.861Z,5.20
2019-02-08T11:32:43.705Z,5.20
2019-02-08T11:33:48.075Z,5.20
2019-02-08T11:34:52.414Z,5.20
2019-02-08T11:35:56.723Z,5.20
2019-02-08T11:37:01.714Z,5.10
2019-02-08T11:38:06.553Z,5.10
2019-02-08T11:39:19.205Z,5.10
2019-02-08T11:40:26.444Z,5.20
2019-02-08T11:41:30.592Z,5.20
2019-02-08T11:42:34.862Z,5.20
2019-02-08T11:43:39.027Z,5.10
2019-02-08T11:44:43.735Z,5.20
2019-02-08T11:45:47.902Z,5.20
2019-02-08T11:46:52.412Z,5.10
2019-02-08T11:47:56.689Z,5.20
2019-02-08T11:49:01.677Z,5.20
2019-02-08T11:50:08.580Z,5.10
2019-02-08T11:51:12.718Z,5.10
2019-02-08T11:52:16.913Z,5.10
2019-02-08T11:53:21.121Z,5.10
2019-02-08T11:54:25.340Z,5.10
2019-02-08T11:55:29.509Z,5.10
2019-02-08T11:56:33.664Z,5.10
2019-02-08T11:57:37.835Z,5.10
2019-02-08T11:58:42.153Z,5.10
2019-02-08T11:59:46.459Z,5.10
2019-02-08T12:00:53.505Z,5.20
2019-02-08T12:01:57.791Z,5.20
2019-02-08T12:03:02.095Z,5.20
2019-02-08T12:04:07.513Z,5.20
2019-02-08T12:05:12.103Z,5.20
2019-02-08T12:06:16.377Z,5.20
2019-02-08T12:07:20.575Z,5.20
2019-02-08T12:08:24.859Z,5.20
2019-02-08T12:09:29.201Z,5.20
2019-02-08T12:10:33.359Z,5.20
2019-02-08T12:11:37.567Z,5.20
2019-02-08T12:12:41.851Z,5.20
2019-02-08T12:13:46.115Z,5.20
2019-02-08T12:14:50.714Z,5.20
2019-02-08T12:15:54.983Z,5.20
2019-02-08T12:16:59.507Z,5.20
2019-02-08T12:18:03.793Z,5.20
2019-02-08T12:19:08.072Z,5.30
2019-02-08T12:20:12.481Z,5.30
2019-02-08T12:21:16.761Z,5.30
2019-02-08T12:22:21.048Z,5.40
2019-02-08T12:23:25.248Z,5.30
2019-02-08T12:24:29.485Z,5.30
2019-02-08T12:25:33.689Z,5.30
2019-02-08T12:26:38.239Z,5.40
2019-02-08T12:27:42.485Z,5.30
2019-02-08T12:28:46.781Z,5.30
2019-02-08T12:29:50.988Z,5.30
2019-02-08T12:30:55.265Z,5.30
2019-02-08T12:31:59.469Z,5.40
2019-02-08T12:33:04.061Z,5.40
2019-02-08T12:34:08.775Z,5.40
2019-02-08T12:35:13.124Z,5.50
2019-02-08T12:36:17.466Z,5.40
2019-02-08T12:37:21.760Z,5.40
2019-02-08T12:38:26.067Z,5.50
2019-02-08T12:39:30.337Z,5.50
2019-02-08T12:40:34.584Z,5.50
2019-02-08T12:41:38.953Z,5.50
2019-02-08T12:42:43.214Z,5.50
2019-02-08T12:43:47.493Z,5.60
2019-02-08T12:44:51.626Z,5.60
2019-02-08T12:45:55.899Z,5.60
2019-02-08T12:47:00.166Z,5.60
2019-02-08T12:48:04.837Z,5.60
2019-02-08T12:49:09.119Z,5.60
2019-02-08T12:50:14.225Z,5.50
2019-02-08T12:51:18.498Z,5.60
2019-02-08T12:52:22.819Z,5.60
2019-02-08T12:53:26.969Z,5.60
2019-02-08T12:54:31.281Z,5.60
2019-02-08T12:55:35.559Z,5.60
2019-02-08T12:56:45.487Z,5.60
2019-02-08T12:57:45.713Z,5.50
2019-02-08T12:58:49.918Z,5.60
2019-02-08T12:59:54.145Z,5.60
2019-02-08T13:00:58.387Z,5.60
2019-02-08T13:02:02.665Z,5.60
2019-02-08T13:03:06.850Z,5.60
2019-02-08T13:04:11.029Z,5.60
2019-02-08T13:05:15.983Z,5.60
2019-02-08T13:06:20.208Z,5.60
2019-02-08T13:07:24.519Z,5.60
2019-02-08T13:08:28.833Z,5.50
2019-02-08T13:09:33.034Z,5.60
2019-02-08T13:10:37.348Z,5.60
2019-02-08T13:11:41.736Z,5.60
2019-02-08T13:12:46.063Z,5.60
2019-02-08T13:13:50.235Z,5.60
2019-02-08T13:14:54.619Z,5.60
2019-02-08T13:15:58.950Z,5.70
2019-02-08T13:17:03.144Z,5.70
2019-02-08T13:18:07.456Z,5.70
2019-02-08T13:19:11.629Z,5.70
2019-02-08T13:20:17.209Z,5.70
2019-02-08T13:21:21.486Z,5.70
2019-02-08T13:22:25.723Z,5.70
2019-02-08T13:23:30.019Z,5.70
2019-02-08T13:24:34.599Z,5.70
2019-02-08T13:25:38.808Z,5.70
2019-02-08T13:26:43.111Z,5.60
2019-02-08T13:27:48.115Z,5.60
2019-02-08T13:28:53.850Z,5.60
2019-02-08T13:29:58.200Z,5.60
2019-02-08T13:31:02.410Z,5.70
2019-02-08T13:32:06.647Z,5.60
2019-02-08T13:33:10.852Z,5.70
2019-02-08T13:34:15.171Z,5.70
2019-02-08T13:35:19.766Z,5.70
2019-02-08T13:36:24.079Z,5.70
2019-02-08T13:37:28.374Z,5.70
2019-02-08T13:38:32.550Z,5.70
2019-02-08T13:39:36.942Z,5.70
2019-02-08T13:40:41.631Z,5.80
2019-02-08T13:41:45.861Z,5.70
2019-02-08T13:42:50.086Z,5.70
2019-02-08T13:43:54.561Z,5.70
2019-02-08T13:44:58.819Z,5.80
2019-02-08T13:46:03.024Z,5.70
2019-02-08T13:47:07.355Z,5.70
2019-02-08T13:48:11.666Z,5.80
2019-02-08T13:49:15.978Z,5.80
2019-02-08T13:50:24.591Z,5.80
2019-02-08T13:51:28.819Z,5.80
2019-02-08T13:52:33.129Z,5.80
2019-02-08T13:53:37.421Z,5.80
2019-02-08T13:54:41.561Z,5.90
2019-02-08T13:55:45.787Z,5.80
2019-02-08T13:56:49.960Z,5.80
2019-02-08T13:57:54.261Z,5.80
2019-02-08T13:58:58.445Z,5.80
2019-02-08T14:00:02.605Z,5.90
2019-02-08T14:01:06.775Z,5.90
2019-02-08T14:02:11.132Z,6.00
2019-02-08T14:03:15.443Z,5.90
2019-02-08T14:04:19.647Z,6.00
2019-02-08T14:05:23.826Z,6.00
2019-02-08T14:06:28.070Z,6.00
2019-02-08T14:07:32.287Z,5.90
2019-02-08T14:08:36.584Z,5.90
2019-02-08T14:09:41.145Z,5.90
2019-02-08T14:10:45.333Z,6.00
2019-02-08T14:11:49.483Z,6.00
2019-02-08T14:12:54.055Z,6.10
2019-02-08T14:13:58.233Z,6.10
2019-02-08T14:15:02.480Z,6.10
2019-02-08T14:16:06.923Z,6.10
2019-02-08T14:17:11.260Z,6.20
2019-02-08T14:18:15.463Z,6.20
2019-02-08T14:19:19.648Z,6.30
2019-02-08T14:20:24.379Z,6.30
2019-02-08T14:21:28.533Z,6.30
2019-02-08T14:22:32.756Z,6.30
2019-02-08T14:23:37.029Z,6.30
2019-02-08T14:24:41.267Z,6.30
2019-02-08T14:25:45.487Z,6.30
2019-02-08T14:26:49.681Z,6.30
2019-02-08T14:27:54.068Z,6.30
2019-02-08T14:28:58.367Z,6.20
2019-02-08T14:30:02.507Z,6.30
2019-02-08T14:31:06.681Z,6.30
2019-02-08T14:32:10.977Z,6.30
2019-02-08T14:33:15.323Z,6.20
2019-02-08T14:34:19.649Z,6.30
2019-02-08T14:35:24.007Z,6.30
2019-02-08T14:36:28.443Z,6.30
2019-02-08T14:37:32.631Z,6.30
2019-02-08T14:38:36.855Z,6.30
2019-02-08T14:39:41.182Z,6.30
2019-02-08T14:40:45.389Z,6.30
2019-02-08T14:41:49.625Z,6.30
2019-02-08T14:42:54.249Z,6.30
2019-02-08T14:43:58.535Z,6.30
2019-02-08T14:45:02.867Z,6.30
2019-02-08T14:46:07.148Z,6.30
2019-02-08T14:47:11.439Z,6.30
2019-02-08T14:48:15.721Z,6.30
2019-02-08T14:49:20.059Z,6.30
2019-02-08T14:50:25.183Z,6.30
2019-02-08T14:51:29.495Z,6.30
2019-02-08T14:52:33.809Z,6.30
2019-02-08T14:53:38.116Z,6.20
2019-02-08T14:54:42.445Z,6.10
2019-02-08T14:55:46.737Z,6.10
2019-02-08T14:56:51.107Z,6.00
2019-02-08T14:57:56.022Z,6.00
2019-02-08T14:59:00.273Z,6.00
2019-02-08T15:00:07.517Z,6.00
2019-02-08T15:01:11.839Z,6.00
2019-02-08T15:02:16.123Z,5.80
2019-02-08T15:03:20.435Z,5.90
2019-02-08T15:04:24.726Z,5.90
2019-02-08T15:05:28.976Z,5.90
2019-02-08T15:06:33.195Z,5.80
2019-02-08T15:07:37.529Z,5.80
2019-02-08T15:08:41.829Z,5.80
2019-02-08T15:09:46.034Z,5.70
2019-02-08T15:10:51.236Z,5.70
2019-02-08T15:11:55.602Z,5.70
2019-02-08T15:13:00.469Z,5.70
2019-02-08T15:14:05.098Z,5.70
2019-02-08T15:15:10.280Z,5.60
2019-02-08T15:16:14.451Z,5.50
2019-02-08T15:17:18.750Z,5.50
2019-02-08T15:18:23.068Z,5.50
2019-02-08T15:19:27.333Z,5.50
2019-02-08T15:20:32.198Z,5.50
2019-02-08T15:21:36.407Z,5.50
2019-02-08T15:22:40.678Z,5.50
2019-02-08T15:23:45.165Z,5.50
2019-02-08T15:24:49.486Z,5.50
2019-02-08T15:25:53.698Z,5.40
2019-02-08T15:26:57.982Z,5.40
2019-02-08T15:28:02.317Z,5.40
2019-02-08T15:29:06.673Z,5.40
2019-02-08T15:30:13.759Z,5.40
2019-02-08T15:31:18.032Z,5.40
2019-02-08T15:32:22.354Z,5.40
2019-02-08T15:33:26.675Z,5.40
2019-02-08T15:34:30.837Z,5.40
2019-02-08T15:35:35.617Z,5.40
2019-02-08T15:36:39.954Z,5.40
2019-02-08T15:37:44.276Z,5.30
2019-02-08T15:38:48.490Z,5.30
2019-02-08T15:39:52.688Z,5.30
2019-02-08T15:40:57.315Z,5.30
2019-02-08T15:42:01.518Z,5.30
2019-02-08T15:43:06.144Z,5.30